Time;durP1;ratioP1;P1;durP2;ratioP2;P2;SDS_P1;SDS_P2;PMS_P1;PMS_P2;Temp;Humidity;BMP_temperature;BMP_pressure;BME280_temperature;BME280_humidity;BME280_pressure;Samples;Min_cycle;Max_cycle;Signal;HPM_P1;HPM_P2
2022/05/27 00:03:04;;;;;;;4.00;2.10;;;;;;;13.74;74.50;101859.84;10488842;28;20411;-75
2022/05/27 00:08:04;;;;;;;8.00;2.95;;;;;;;13.67;75.44;101865.63;10491387;28;20441;-75
2022/05/27 00:13:05;;;;;;;7.10;3.15;;;;;;;13.64;74.94;101861.13;10504385;28;20051;-78
2022/05/27 00:18:06;;;;;;;3.28;1.95;;;;;;;13.68;74.38;101859.53;10488054;28;20041;-75
2022/05/27 00:23:06;;;;;;;6.35;2.95;;;;;;;13.63;75.15;101858.41;10483280;28;20101;-75
2022/05/27 00:28:07;;;;;;;8.23;3.33;;;;;;;13.62;75.14;101857.50;10491365;28;20044;-76
2022/05/27 00:33:08;;;;;;;6.68;2.33;;;;;;;13.57;75.08;101852.81;10487881;28;20172;-76
2022/05/27 00:38:08;;;;;;;8.27;2.40;;;;;;;13.56;75.07;101857.19;10504247;28;20036;-76
2022/05/27 00:43:09;;;;;;;4.85;2.38;;;;;;;13.56;74.79;101848.41;10486302;28;20051;-75
2022/05/27 00:48:14;;;;;;;4.75;2.30;;;;;;;13.54;74.95;101843.06;10488876;28;20118;-76
2022/05/27 00:53:28;;;;;;;4.72;2.30;;;;;;;13.53;75.24;101848.22;10486863;28;20083;-76
2022/05/27 00:58:30;;;;;;;5.65;3.38;;;;;;;13.54;75.23;101842.16;10472444;28;20044;-76
2022/05/27 01:03:31;;;;;;;4.85;2.03;;;;;;;13.44;75.24;101836.41;10487632;28;20036;-77
2022/05/27 01:08:31;;;;;;;4.78;2.38;;;;;;;13.46;74.89;101831.25;10484192;28;20075;-77
2022/05/27 01:13:40;;;;;;;7.70;3.25;;;;;;;13.45;75.36;101830.34;10489135;28;20059;-76
2022/05/27 01:24:05;;;;;;;6.47;2.88;;;;;;;13.43;75.27;101825.84;10447873;28;20120;-77
2022/05/27 01:29:17;;;;;;;6.35;2.50;;;;;;;13.44;75.36;101822.38;10484385;28;20037;-76
2022/05/27 01:35:09;;;;;;;5.95;3.92;;;;;;;13.39;75.68;101821.22;10486810;28;20478;-76
2022/05/27 01:40:14;;;;;;;5.55;1.95;;;;;;;13.36;75.71;101821.94;10441679;28;20049;-76
2022/05/27 01:45:28;;;;;;;4.80;2.28;;;;;;;13.32;76.67;101820.91;10482933;28;20063;-76
2022/05/27 01:50:42;;;;;;;8.73;3.85;;;;;;;13.21;77.74;101825.59;10500550;28;20533;-76
2022/05/27 01:56:11;;;;;;;5.72;2.85;;;;;;;13.24;77.23;101814.34;10485343;28;20548;-76
2022/05/27 02:01:15;;;;;;;8.80;4.60;;;;;;;13.25;77.16;101820.50;10485911;28;20094;-76
2022/05/27 02:06:23;;;;;;;7.72;2.63;;;;;;;13.17;78.77;101820.09;10484279;28;20488;-75
2022/05/27 02:11:24;;;;;;;7.22;3.03;;;;;;;13.03;79.75;101811.47;10466631;28;20125;-76
2022/05/27 02:16:52;;;;;;;9.10;2.88;;;;;;;12.84;81.73;101817.50;10475432;28;20189;-76
2022/05/27 02:22:08;;;;;;;5.82;3.80;;;;;;;12.77;81.94;101822.41;10482656;28;20424;-77
2022/05/27 02:27:12;;;;;;;7.78;3.22;;;;;;;12.57;83.35;101812.56;10485271;28;20476;-76
2022/05/27 02:32:15;;;;;;;6.50;3.72;;;;;;;12.43;86.26;101819.66;10481401;28;20622;-76
2022/05/27 02:37:29;;;;;;;5.90;3.42;;;;;;;12.30;87.46;101824.22;10483876;28;20046;-76
2022/05/27 02:42:34;;;;;;;6.22;3.55;;;;;;;12.18;89.01;101816.59;10481559;28;20048;-76
2022/05/27 02:47:53;;;;;;;6.72;3.83;;;;;;;12.09;90.77;101807.28;10496240;28;20045;-76
2022/05/27 02:53:05;;;;;;;7.50;5.07;;;;;;;11.96;92.03;101816.16;10480048;28;20036;-76
2022/05/27 02:58:06;;;;;;;13.88;5.97;;;;;;;11.90;93.37;101803.56;10465166;28;20040;-76
2022/05/27 03:03:06;;;;;;;16.13;5.57;;;;;;;11.84;94.42;101805.84;10465511;28;20040;-76
2022/05/27 03:08:25;;;;;;;10.13;5.85;;;;;;;11.73;95.40;101806.13;10484596;28;20060;-76
2022/05/27 03:13:38;;;;;;;10.82;6.20;;;;;;;11.77;95.97;101801.06;10482253;28;20051;-78
2022/05/27 03:19:00;;;;;;;10.10;5.38;;;;;;;11.67;96.77;101799.63;10499285;28;20094;-76
2022/05/27 03:24:18;;;;;;;22.23;7.73;;;;;;;11.63;97.83;101801.16;10487649;28;20093;-76
2022/05/27 03:29:31;;;;;;;7.95;5.97;;;;;;;11.63;98.73;101785.44;10472759;28;20275;-76
2022/05/27 03:34:37;;;;;;;;;;;;;;;11.59;99.46;101793.94;10481840;28;20128;-76
2022/05/27 03:40:07;;;;;;;10.13;6.47;;;;;;;11.54;99.68;101790.13;10481448;28;19921;-76
2022/05/27 03:45:08;;;;;;;17.90;7.80;;;;;;;11.53;100.00;101798.81;10482002;28;20434;-76
2022/05/27 03:50:10;;;;;;;11.93;7.20;;;;;;;11.53;100.00;101797.13;10495694;28;20040;-77
2022/05/27 03:55:12;;;;;;;20.25;9.43;;;;;;;11.50;100.00;101798.63;10479831;28;20476;-76
2022/05/27 04:00:13;;;;;;;22.27;9.38;;;;;;;11.58;100.00;101790.41;10482164;28;20040;-77
2022/05/27 04:05:18;;;;;;;17.23;10.45;;;;;;;11.54;100.00;101795.38;10489714;28;20400;-76
2022/05/27 04:10:19;;;;;;;16.50;8.80;;;;;;;11.55;100.00;101803.34;10465829;28;20037;-76
2022/05/27 04:15:20;;;;;;;15.97;9.77;;;;;;;11.58;100.00;101802.59;10472047;28;20037;-75
2022/05/27 04:20:21;;;;;;;27.70;11.13;;;;;;;11.58;100.00;101806.16;10504131;28;20488;-76
2022/05/27 04:25:22;;;;;;;19.75;10.35;;;;;;;11.60;100.00;101811.47;10477821;28;20047;-78
2022/05/27 04:30:24;;;;;;;21.85;12.18;;;;;;;11.63;100.00;101800.28;10499275;28;20404;-78
2022/05/27 04:35:24;;;;;;;21.92;10.90;;;;;;;11.67;100.00;101800.53;10484675;28;20047;-78
2022/05/27 04:40:25;;;;;;;20.08;11.60;;;;;;;11.73;100.00;101798.25;10486944;28;20459;-79
2022/05/27 04:45:26;;;;;;;21.58;14.25;;;;;;;11.79;100.00;101807.28;10485095;28;20040;-78
2022/05/27 04:50:27;;;;;;;24.83;11.35;;;;;;;11.79;100.00;101800.34;10503220;28;20054;-75
2022/05/27 04:55:30;;;;;;;24.90;13.82;;;;;;;11.83;100.00;101804.94;10487587;28;20033;-75
2022/05/27 05:00:36;;;;;;;28.50;13.52;;;;;;;11.84;100.00;101816.34;10485752;28;20028;-77
2022/05/27 05:05:37;;;;;;;17.73;11.27;;;;;;;11.95;100.00;101843.19;10483868;28;20388;-78
2022/05/27 05:10:38;;;;;;;17.30;10.65;;;;;;;11.91;100.00;101834.22;10487933;28;20040;-76
2022/05/27 05:15:38;;;;;;;13.82;7.07;;;;;;;12.00;100.00;101839.16;10488866;28;20065;-78
2022/05/27 05:20:38;;;;;;;7.38;5.22;;;;;;;11.78;100.00;101837.88;10465758;28;20246;-78
2022/05/27 05:25:39;;;;;;;33.75;30.55;;;;;;;11.61;100.00;101844.75;10487120;28;20127;-78
2022/05/27 05:30:39;;;;;;;13.38;8.95;;;;;;;11.51;100.00;101843.31;10488665;28;20075;-78
2022/05/27 05:35:40;;;;;;;10.13;7.60;;;;;;;11.52;100.00;101841.56;10488257;28;20536;-78
2022/05/27 05:40:40;;;;;;;10.90;5.78;;;;;;;11.53;100.00;101838.13;10483852;28;20067;-78
2022/05/27 05:45:41;;;;;;;9.95;5.60;;;;;;;11.51;100.00;101840.69;10467833;28;20067;-78
2022/05/27 05:50:41;;;;;;;10.18;6.70;;;;;;;11.59;100.00;101843.75;10500664;28;20123;-78
2022/05/27 05:55:42;;;;;;;11.30;7.25;;;;;;;11.66;100.00;101850.28;10500559;28;20164;-78
2022/05/27 06:00:42;;;;;;;11.30;6.38;;;;;;;11.73;100.00;101863.81;10483303;28;20119;-78
2022/05/27 06:05:43;;;;;;;12.18;8.07;;;;;;;11.86;100.00;101865.47;10482400;28;20135;-78
2022/05/27 06:10:44;;;;;;;12.30;8.45;;;;;;;11.99;100.00;101866.16;10486225;28;20097;-79
2022/05/27 06:15:44;;;;;;;11.15;7.82;;;;;;;12.00;100.00;101860.16;10499957;28;20052;-78
2022/05/27 06:20:45;;;;;;;14.38;9.82;;;;;;;12.24;100.00;101859.75;10482926;28;20175;-79
2022/05/27 06:25:45;;;;;;;11.13;7.70;;;;;;;12.99;100.00;101851.56;10485047;28;20120;-79
2022/05/27 06:36:05;;;;;;;12.68;6.97;;;;;;;13.53;100.00;101854.41;10484516;28;20075;-79
2022/05/27 06:41:05;;;;;;;11.77;8.20;;;;;;;13.53;97.69;101866.66;10441768;28;20037;-79
2022/05/27 06:46:06;;;;;;;12.07;8.55;;;;;;;14.54;99.80;101868.13;10443310;28;20072;-81
2022/05/27 06:51:06;;;;;;;11.25;7.10;;;;;;;17.21;89.68;101865.13;10455733;28;20059;-79
2022/05/27 06:56:08;;;;;;;8.80;6.10;;;;;;;18.71;73.68;101863.91;10483072;28;20070;-80
2022/05/27 07:01:09;;;;;;;;;;;;;;;18.28;76.24;101878.47;10484664;28;20028;-79
2022/05/27 07:06:10;;;;;;;11.13;7.78;;;;;;;17.19;77.92;101869.47;10483464;28;19920;-79
2022/05/27 07:11:11;;;;;;;14.13;9.87;;;;;;;17.67;77.01;101872.91;10482987;28;20112;-79
2022/05/27 07:16:11;;;;;;;16.02;8.68;;;;;;;18.57;77.21;101870.53;10483245;28;20036;-79
2022/05/27 07:21:12;;;;;;;13.03;6.93;;;;;;;19.77;67.33;101873.06;10455486;28;20488;-78
2022/05/27 07:26:12;;;;;;;7.70;6.00;;;;;;;20.88;64.55;101872.97;10440797;28;20120;-79
2022/05/27 07:31:13;;;;;;;9.00;5.27;;;;;;;21.12;61.69;101878.81;10466842;28;20150;-76
2022/05/27 07:36:14;;;;;;;12.17;4.73;;;;;;;21.63;60.50;101870.03;10483602;28;20050;-78
2022/05/27 07:41:14;;;;;;;7.33;4.07;;;;;;;22.11;56.46;101873.47;10504839;28;20255;-79
2022/05/27 07:46:15;;;;;;;10.63;4.03;;;;;;;21.41;58.31;101873.16;10477710;28;20483;-77
2022/05/27 07:51:16;;;;;;;7.10;3.57;;;;;;;20.77;59.10;101880.72;10478086;28;20040;-77
2022/05/27 07:56:16;;;;;;;8.17;4.07;;;;;;;22.29;52.94;101879.09;10463214;28;20125;-77
2022/05/27 08:01:17;;;;;;;10.17;4.43;;;;;;;22.28;53.20;101885.28;10482452;28;20124;-77
2022/05/27 08:06:17;;;;;;;8.00;3.00;;;;;;;23.02;50.57;101871.19;10478720;28;20083;-77
2022/05/27 08:11:18;;;;;;;8.13;5.07;;;;;;;23.32;48.54;101875.13;10491131;28;20488;-77
2022/05/27 08:16:18;;;;;;;12.17;4.87;;;;;;;23.98;47.59;101872.16;10488865;28;20072;-75
2022/05/27 08:21:19;;;;;;;10.93;5.67;;;;;;;22.80;50.71;101886.06;10489151;28;20133;-75
2022/05/27 08:26:19;;;;;;;13.30;6.57;;;;;;;20.68;56.94;101876.06;10480425;28;20079;-76
2022/05/27 08:31:21;;;;;;;7.80;4.23;;;;;;;21.18;53.20;101877.13;10492640;28;20385;-77
2022/05/27 08:41:57;;;;;;;7.45;4.10;;;;;;;23.93;47.77;101886.38;10456818;28;20040;-77
2022/05/27 08:47:21;;;;;;;6.50;4.03;;;;;;;22.95;50.47;101880.91;10482275;28;20040;-77
2022/05/27 08:52:25;;;;;;;8.52;4.45;;;;;;;21.08;55.01;101890.25;10485884;28;20082;-79
2022/05/27 09:02:56;;;;;;;10.13;4.00;;;;;;;21.83;51.64;101883.69;10473110;28;20480;-78
2022/05/27 09:08:02;;;;;;;10.90;5.72;;;;;;;21.99;48.24;101872.41;10464649;28;20502;-79
2022/05/27 09:13:10;;;;;;;7.70;2.90;;;;;;;21.86;50.24;101873.06;10459609;28;20068;-76
2022/05/27 09:18:33;;;;;;;7.20;3.20;;;;;;;23.16;48.92;101863.34;10466585;28;20056;-75
2022/05/27 09:23:55;;;;;;;8.88;3.60;;;;;;;24.68;44.25;101863.69;10477910;28;20063;-75
2022/05/27 09:29:20;;;;;;;9.35;4.38;;;;;;;22.04;47.44;101874.25;10484732;28;21106;-79
2022/05/27 09:34:20;;;;;;;6.22;2.72;;;;;;;20.17;50.13;101893.53;10485773;28;20033;-76
2022/05/27 09:39:21;;;;;;;4.43;2.05;;;;;;;18.86;54.01;101894.38;10451922;28;20082;-76
2022/05/27 09:44:37;;;;;;;6.77;2.70;;;;;;;18.54;55.62;101903.16;10467446;28;20040;-77
2022/05/27 09:49:38;;;;;;;10.00;2.83;;;;;;;19.77;52.73;101899.59;10468623;28;20082;-76
2022/05/27 09:54:50;;;;;;;5.85;2.80;;;;;;;21.99;48.31;101893.72;10468727;28;20048;-77
2022/05/27 10:00:02;;;;;;;10.10;3.20;;;;;;;23.41;42.76;101893.91;10466770;28;20037;-76
2022/05/27 10:05:05;;;;;;;;;;;;;;;24.73;42.48;101878.03;10464420;28;20116;-77
2022/05/27 10:10:14;;;;;;;;;;;;;;;26.17;39.63;101880.13;10475980;28;19924;-78
2022/05/27 10:15:34;;;;;;;9.30;2.95;;;;;;;25.68;38.97;101889.06;10481054;28;19964;-76
2022/05/27 10:20:36;;;;;;;7.55;3.28;;;;;;;23.16;42.06;101900.75;10481751;28;20500;-78
2022/05/27 10:25:38;;;;;;;8.13;3.45;;;;;;;19.97;46.34;101927.56;10471973;28;20036;-78
2022/05/27 10:30:52;;;;;;;10.20;2.90;;;;;;;22.72;44.24;101907.28;10479085;28;20028;-76
2022/05/27 10:35:52;;;;;;;10.02;2.42;;;;;;;24.73;39.14;101896.78;10480369;28;20439;-76
2022/05/27 10:41:19;;;;;;;7.30;2.23;;;;;;;24.62;37.84;101896.69;10467274;28;20041;-77
2022/05/27 10:46:22;;;;;;;14.63;8.73;;;;;;;25.67;36.46;101900.66;10455072;28;20049;-79
2022/05/27 10:51:30;;;;;;;10.20;4.60;;;;;;;21.71;42.51;101917.22;10457505;28;20100;-76
2022/05/27 11:02:58;;;;;;;9.27;2.80;;;;;;;26.07;35.20;101896.19;10480465;28;20053;-79
2022/05/27 11:08:05;;;;;;;11.88;3.97;;;;;;;25.62;34.40;101897.97;10465320;28;20578;-79
2022/05/27 11:19:11;;;;;;;8.20;2.83;;;;;;;25.73;35.05;101903.34;10482140;28;20072;-79
2022/05/27 11:24:24;;;;;;;8.07;2.45;;;;;;;26.22;35.20;101911.44;10481621;28;20476;-78
2022/05/27 11:29:53;;;;;;;8.48;3.10;;;;;;;23.88;35.24;101911.31;10456548;28;20079;-77
2022/05/27 11:35:16;;;;;;;11.82;3.05;;;;;;;22.65;39.28;101921.41;10476080;28;20055;-78
2022/05/27 11:40:40;;;;;;;7.47;3.03;;;;;;;24.37;36.33;101920.63;10476353;28;20127;-77
2022/05/27 11:46:03;;;;;;;11.13;2.47;;;;;;;24.82;32.61;101907.53;10487416;28;20135;-78
2022/05/27 11:51:12;;;;;;;7.68;2.35;;;;;;;25.82;32.61;101913.19;10490477;28;20553;-76
2022/05/27 11:56:25;;;;;;;9.80;3.78;;;;;;;24.83;33.33;101903.97;10481939;28;20039;-77
2022/05/27 12:01:31;;;;;;;8.35;3.15;;;;;;;21.29;38.37;101923.50;10485993;28;20044;-76
2022/05/27 12:07:09;;;;;;;12.60;4.25;;;;;;;23.37;37.29;101926.81;10504348;28;20089;-78
2022/05/27 12:12:31;;;;;;;5.80;1.98;;;;;;;24.74;34.56;101903.91;10531824;28;20040;-76
2022/05/27 12:17:43;;;;;;;8.85;3.42;;;;;;;24.44;35.99;101921.53;10483526;28;20040;-76
2022/05/27 12:22:43;;;;;;;6.95;2.97;;;;;;;22.24;36.52;101928.78;10472560;28;20044;-79
2022/05/27 12:27:44;;;;;;;8.48;2.72;;;;;;;22.70;36.11;101927.72;10471628;28;20110;-76
2022/05/27 12:32:45;;;;;;;7.83;2.00;;;;;;;23.71;31.50;101919.16;10488358;28;20124;-77
2022/05/27 12:37:50;;;;;;;5.60;2.80;;;;;;;21.99;34.90;101922.16;10470929;28;20032;-77
2022/05/27 12:42:55;;;;;;;7.10;2.58;;;;;;;22.06;37.98;101925.81;10471297;28;20043;-77
2022/05/27 12:47:56;;;;;;;8.95;2.92;;;;;;;22.84;36.52;101920.78;10484869;28;20049;-77
2022/05/27 12:52:58;;;;;;;11.57;2.78;;;;;;;22.71;35.40;101921.50;10487245;28;20064;-77
2022/05/27 13:03:33;;;;;;;7.55;3.47;;;;;;;23.23;38.81;101920.38;10486633;28;20380;-75
2022/05/27 13:08:54;;;;;;;7.28;3.97;;;;;;;22.98;35.11;101926.31;10483527;28;20107;-75
2022/05/27 13:14:04;;;;;;;8.63;3.22;;;;;;;21.48;38.84;101930.09;10481906;28;20047;-77
2022/05/27 13:19:06;;;;;;;7.25;2.78;;;;;;;21.64;38.69;101930.41;10484762;28;20044;-77
2022/05/27 13:24:13;;;;;;;12.73;3.72;;;;;;;23.21;34.96;101932.81;10469514;28;20060;-77
2022/05/27 13:29:23;;;;;;;10.90;3.35;;;;;;;21.09;37.52;101942.63;10488459;28;20028;-77
2022/05/27 13:34:29;;;;;;;8.05;2.25;;;;;;;21.60;37.10;101940.06;10487805;28;20037;-76
2022/05/27 13:39:39;;;;;;;5.93;2.72;;;;;;;20.46;39.62;101944.72;10487530;28;20469;-77
2022/05/27 13:44:40;;;;;;;5.25;2.78;;;;;;;22.32;36.15;101947.59;10439673;28;20033;-81
2022/05/27 13:49:42;;;;;;;7.75;2.40;;;;;;;23.51;35.56;101934.06;10444816;28;20098;-80
2022/05/27 13:54:43;;;;;;;13.83;3.20;;;;;;;23.96;34.21;101937.22;10453715;28;20032;-78
2022/05/27 13:59:52;;;;;;;8.75;2.67;;;;;;;24.33;33.28;101954.47;10486191;28;20500;-78
2022/05/27 14:05:11;;;;;;;12.05;3.97;;;;;;;22.07;35.18;101959.59;10469380;28;20066;-78
2022/05/27 14:10:27;;;;;;;10.05;4.15;;;;;;;23.07;34.53;101952.22;10469710;28;20115;-78
2022/05/27 14:15:31;;;;;;;10.10;2.63;;;;;;;22.43;34.04;101947.75;10484958;28;20037;-77
2022/05/27 14:26:01;;;;;;;7.97;2.35;;;;;;;22.08;35.15;101966.72;10470713;28;20040;-78
2022/05/27 14:31:11;;;;;;;6.57;2.20;;;;;;;22.65;34.21;101967.69;10484710;28;20484;-77
2022/05/27 14:36:12;;;;;;;5.25;2.50;;;;;;;22.26;34.85;101980.34;10484316;28;20044;-77
2022/05/27 14:41:32;;;;;;;12.15;4.57;;;;;;;20.97;37.28;101967.22;10466858;28;20033;-77
2022/05/27 14:46:36;;;;;;;6.28;2.20;;;;;;;21.34;33.31;101975.06;10470250;28;20036;-77
2022/05/27 14:51:42;;;;;;;6.03;2.20;;;;;;;21.17;34.01;101976.47;10484879;28;20507;-78
2022/05/27 14:56:43;;;;;;;8.48;1.80;;;;;;;21.11;32.16;101988.78;10485127;28;20029;-77
2022/05/27 15:01:43;;;;;;;6.30;3.13;;;;;;;20.62;33.34;101972.59;10482006;28;20480;-78
2022/05/27 15:06:45;;;;;;;16.85;3.80;;;;;;;18.79;36.10;101987.00;10482556;28;20045;-78
2022/05/27 15:11:46;;;;;;;;;;;;;;;18.48;39.52;101986.03;10464168;28;20071;-77
2022/05/27 15:17:03;;;;;;;5.18;1.70;;;;;;;18.64;41.00;101986.53;10481329;28;19924;-77
2022/05/27 15:22:05;;;;;;;6.72;2.53;;;;;;;18.43;38.51;101981.44;10466230;28;20175;-76
2022/05/27 15:38:00;;;;;;;9.93;3.10;;;;;;;17.77;39.28;101994.16;10479601;28;20029;-77
2022/05/27 15:43:00;;;;;;;;;;;;;;;17.75;39.76;101996.78;10458140;28;20031;-77
2022/05/27 15:48:01;;;;;;;24.00;9.63;;;;;;;17.81;42.25;101997.84;10481624;28;19932;-75
2022/05/27 15:53:02;;;;;;;12.38;3.67;;;;;;;17.73;43.95;102003.75;10477464;28;20310;-76
2022/05/27 15:58:03;;;;;;;19.02;6.35;;;;;;;17.80;43.01;101996.03;10480120;28;20048;-76
2022/05/27 16:03:04;;;;;;;15.45;5.22;;;;;;;17.08;43.81;102005.72;10467770;28;20127;-75
2022/05/27 16:08:05;;;;;;;11.23;3.22;;;;;;;16.91;43.89;102005.03;10465559;28;20052;-76
2022/05/27 16:13:07;;;;;;;8.18;2.60;;;;;;;16.85;45.57;102011.88;10480375;28;20450;-75
2022/05/27 16:18:10;;;;;;;11.43;3.28;;;;;;;17.06;44.99;102008.31;10479848;28;20067;-75
2022/05/27 16:23:11;;;;;;;19.23;9.80;;;;;;;16.57;44.79;102008.09;10483187;28;20032;-76
2022/05/27 16:28:11;;;;;;;16.00;7.28;;;;;;;16.55;46.11;102014.16;10454646;28;20074;-75
2022/05/27 16:33:12;;;;;;;13.10;4.03;;;;;;;16.38;46.45;102026.69;10488427;28;20119;-75
2022/05/27 16:38:12;;;;;;;16.63;4.53;;;;;;;16.15;46.33;102023.94;10506297;28;20088;-75
2022/05/27 16:43:13;;;;;;;13.40;6.07;;;;;;;15.76;47.40;102035.41;10487626;28;20767;-74
2022/05/27 16:48:13;;;;;;;7.97;4.32;;;;;;;15.61;47.15;102047.91;10470824;28;20128;-76
2022/05/27 16:53:14;;;;;;;13.25;4.57;;;;;;;15.27;47.09;102052.53;10503346;28;20036;-75
2022/05/27 16:58:15;;;;;;;28.90;22.80;;;;;;;15.10;47.27;102041.16;10489529;28;20065;-75
2022/05/27 17:03:16;;;;;;;9.15;4.05;;;;;;;15.21;48.43;102036.44;10487778;28;20507;-76
2022/05/27 17:08:16;;;;;;;10.88;5.32;;;;;;;15.19;48.32;102040.72;10486156;28;20052;-76
2022/05/27 17:13:17;;;;;;;12.35;3.92;;;;;;;15.06;48.92;102053.31;10502931;28;20056;-75
2022/05/27 17:18:17;;;;;;;12.10;6.15;;;;;;;14.98;48.92;102045.03;10483448;28;20091;-75
2022/05/27 17:23:18;;;;;;;8.73;2.60;;;;;;;14.71;46.97;102052.50;10502253;28;20124;-76
2022/05/27 17:28:18;;;;;;;9.63;2.88;;;;;;;14.45;48.46;102048.50;10485274;28;20056;-76
2022/05/27 17:33:19;;;;;;;5.85;2.22;;;;;;;14.30;49.05;102053.91;10483782;28;20036;-76
2022/05/27 17:38:19;;;;;;;5.90;2.00;;;;;;;14.10;47.78;102049.41;10485492;28;20049;-77
2022/05/27 17:43:21;;;;;;;11.23;3.03;;;;;;;14.00;49.06;102062.03;10483991;28;20140;-76
2022/05/27 17:54:00;;;;;;;11.63;4.45;;;;;;;13.64;49.24;102066.31;10424842;28;20033;-76
2022/05/27 17:59:01;;;;;;;11.70;3.75;;;;;;;13.44;49.17;102069.56;10486281;28;20058;-76
2022/05/27 18:04:01;;;;;;;8.60;2.20;;;;;;;13.37;49.56;102078.78;10488496;28;20163;-76
2022/05/27 18:09:02;;;;;;;8.32;1.88;;;;;;;13.16;49.41;102083.78;10486763;28;20071;-78
2022/05/27 18:14:03;;;;;;;12.80;1.85;;;;;;;12.88;50.80;102088.34;10473624;28;20037;-77
2022/05/27 18:19:05;;;;;;;5.32;1.58;;;;;;;12.68;52.19;102088.91;10484447;28;20051;-76
2022/05/27 18:24:05;;;;;;;10.63;2.72;;;;;;;12.67;52.24;102100.22;10479608;28;20034;-77
2022/05/27 18:29:06;;;;;;;6.35;2.40;;;;;;;12.56;52.75;102100.50;10466049;28;20102;-77
2022/05/27 18:34:09;;;;;;;12.07;2.88;;;;;;;12.45;52.94;102106.84;10485720;28;20571;-77
2022/05/27 18:39:09;;;;;;;9.18;1.98;;;;;;;12.24;53.71;102106.47;10480521;28;20098;-77
2022/05/27 18:44:10;;;;;;;7.00;2.45;;;;;;;12.03;55.11;102113.09;10484742;28;20464;-77
2022/05/27 18:49:10;;;;;;;7.25;3.72;;;;;;;11.96;54.72;102123.09;10473942;28;20064;-78
2022/05/27 18:54:11;;;;;;;7.07;2.83;;;;;;;11.84;55.28;102117.97;10485118;28;20064;-77
2022/05/27 18:59:12;;;;;;;8.27;2.63;;;;;;;11.70;55.10;102127.63;10487270;28;20036;-77
2022/05/27 19:04:13;;;;;;;9.20;2.87;;;;;;;11.56;55.65;102117.16;10477606;28;20048;-77
2022/05/27 19:09:13;;;;;;;9.10;2.25;;;;;;;11.34;56.39;102125.34;10468570;28;20660;-77
2022/05/27 19:14:15;;;;;;;14.63;3.15;;;;;;;11.16;56.74;102123.34;10484741;28;20156;-77
2022/05/27 19:24:34;;;;;;;10.77;2.63;;;;;;;10.89;56.88;102127.69;10444819;28;20120;-77
2022/05/27 19:29:35;;;;;;;4.75;1.33;;;;;;;10.79;56.90;102123.53;10456611;28;20131;-76
2022/05/27 19:34:35;;;;;;;5.00;2.97;;;;;;;10.55;58.01;102128.03;10481803;28;20132;-78
2022/05/27 19:39:36;;;;;;;10.43;4.72;;;;;;;10.29;59.29;102129.75;10481988;28;20071;-77
2022/05/27 19:44:36;;;;;;;11.35;2.33;;;;;;;10.06;59.96;102141.22;10440204;28;20508;-77
2022/05/27 19:49:37;;;;;;;8.98;3.00;;;;;;;9.82;60.82;102134.38;10453149;28;20099;-78
2022/05/27 19:54:39;;;;;;;7.15;1.67;;;;;;;9.64;63.40;102138.28;10473493;28;20029;-78
2022/05/27 19:59:39;;;;;;;9.98;2.75;;;;;;;9.34;65.11;102135.28;10469516;28;20037;-78
2022/05/27 20:04:55;;;;;;;8.18;2.75;;;;;;;9.14;68.03;102141.63;10465663;28;20120;-78
2022/05/27 20:09:56;;;;;;;12.73;2.22;;;;;;;8.86;67.94;102145.72;10468578;28;20056;-78
2022/05/27 20:14:58;;;;;;;8.55;2.17;;;;;;;8.68;70.45;102149.56;10447913;28;20873;-78
2022/05/27 20:19:59;;;;;;;9.68;4.53;;;;;;;8.46;70.99;102140.94;10487856;28;20037;-77
2022/05/27 20:24:59;;;;;;;7.82;2.67;;;;;;;8.19;71.63;102150.16;10459698;28;20036;-77
2022/05/27 20:30:00;;;;;;;5.47;2.15;;;;;;;7.94;72.28;102143.91;10465079;28;20049;-78
2022/05/27 20:35:01;;;;;;;4.50;2.30;;;;;;;7.85;73.61;102140.59;10453410;28;20488;-79
2022/05/27 20:40:01;;;;;;;3.65;1.73;;;;;;;7.70;74.13;102145.50;10481074;28;20037;-76
2022/05/27 20:45:03;;;;;;;3.97;1.75;;;;;;;7.61;75.59;102143.06;10459190;28;20556;-77
2022/05/27 20:50:04;;;;;;;6.03;3.73;;;;;;;7.44;76.03;102148.59;10445980;28;20052;-77
2022/05/27 20:55:05;;;;;;;10.35;3.20;;;;;;;7.35;76.74;102144.47;10487034;28;20615;-78
2022/05/27 21:00:06;;;;;;;8.10;2.00;;;;;;;7.29;76.86;102133.56;10486916;28;20041;-77
2022/05/27 21:05:07;;;;;;;5.55;1.90;;;;;;;7.15;77.43;102148.06;10487987;28;20093;-77
2022/05/27 21:10:08;;;;;;;10.50;3.35;;;;;;;6.91;77.82;102139.13;10485157;28;20047;-77
2022/05/27 21:15:09;;;;;;;10.15;1.65;;;;;;;6.78;79.29;102136.28;10503655;28;20040;-77
2022/05/27 21:20:10;;;;;;;7.70;2.38;;;;;;;6.70;79.25;102138.28;10486765;28;20040;-77
2022/05/27 21:25:11;;;;;;;6.88;2.80;;;;;;;6.60;79.99;102134.91;10484897;28;20071;-77
2022/05/27 21:30:12;;;;;;;8.43;1.70;;;;;;;6.56;81.88;102138.03;10452232;28;20120;-77
2022/05/27 21:35:14;;;;;;;4.82;1.70;;;;;;;6.49;82.71;102130.47;10488271;28;20033;-78
2022/05/27 21:40:15;;;;;;;7.57;1.73;;;;;;;6.51;83.87;102128.91;10468245;28;20040;-78
2022/05/27 21:45:15;;;;;;;8.98;2.03;;;;;;;6.43;84.28;102132.56;10487607;28;20489;-78
2022/05/27 21:50:16;;;;;;;5.65;1.52;;;;;;;6.33;85.25;102125.66;10484165;28;20095;-78
2022/05/27 21:55:16;;;;;;;4.30;2.00;;;;;;;6.35;86.08;102131.00;10483330;28;20396;-78
2022/05/27 22:00:18;;;;;;;9.18;2.10;;;;;;;6.30;86.20;102139.31;10482947;28;20408;-77
2022/05/27 22:05:18;;;;;;;5.20;2.15;;;;;;;6.27;86.53;102131.25;10483489;28;20041;-77
2022/05/27 22:15:38;;;;;;;11.63;2.58;;;;;;;6.26;87.09;102126.84;10485832;28;20048;-78
2022/05/27 22:20:38;;;;;;;5.90;1.98;;;;;;;6.22;87.68;102134.22;10485611;28;20086;-77
2022/05/27 22:25:39;;;;;;;7.88;3.38;;;;;;;6.14;87.26;102136.19;10483559;28;20178;-77
2022/05/27 22:30:40;;;;;;;10.07;3.03;;;;;;;6.02;88.40;102130.81;10502146;28;20085;-77
2022/05/27 22:35:40;;;;;;;3.28;2.25;;;;;;;6.00;88.41;102129.75;10482196;28;20037;-78
2022/05/27 22:40:41;;;;;;;9.57;2.55;;;;;;;5.93;88.50;102122.19;10485696;28;20064;-77
2022/05/27 22:45:41;;;;;;;7.20;3.22;;;;;;;5.86;89.12;102115.56;10497665;28;20067;-77
2022/05/27 22:50:42;;;;;;;9.80;3.47;;;;;;;5.82;89.45;102106.59;10484385;28;20079;-77
2022/05/27 22:55:42;;;;;;;10.85;3.47;;;;;;;5.81;90.01;102099.56;10482910;28;20075;-78
2022/05/27 23:00:43;;;;;;;8.38;3.33;;;;;;;5.75;89.86;102098.16;10483939;28;20125;-77
2022/05/27 23:05:49;;;;;;;10.23;3.05;;;;;;;5.72;90.24;102091.91;10482825;28;20098;-77
2022/05/27 23:11:01;;;;;;;7.30;3.95;;;;;;;5.67;90.40;102079.28;10483780;28;20056;-78
2022/05/27 23:21:20;;;;;;;8.73;3.47;;;;;;;5.68;89.93;102071.63;10482552;28;20748;-77
2022/05/27 23:26:21;;;;;;;14.63;4.13;;;;;;;5.66;90.20;102068.00;10485820;28;20127;-77
2022/05/27 23:31:21;;;;;;;8.63;3.55;;;;;;;5.64;89.88;102068.63;10483761;28;20052;-77
2022/05/27 23:36:22;;;;;;;8.43;3.38;;;;;;;5.52;90.24;102064.19;10499398;28;20488;-77
2022/05/27 23:41:22;;;;;;;13.02;3.72;;;;;;;5.57;90.54;102065.50;10482064;28;20044;-77
2022/05/27 23:46:23;;;;;;;7.13;3.20;;;;;;;5.54;90.10;102049.63;10482524;28;20110;-77
2022/05/27 23:51:23;;;;;;;9.30;3.70;;;;;;;5.42;90.39;102054.69;10480664;28;20037;-77
2022/05/27 23:56:24;;;;;;;5.57;2.67;;;;;;;5.33;90.68;102053.88;10497900;28;20094;-78
